.
WxDataArchive / Data Records for 2016-02-01
2016-01-31 February 2016 2016-02-02

Data Records for Monday, 01 February 2016

Time	Temp	Chill	HIndex	Humid	Dewpt	 Wind 	HiWind	WindDir	Rain 	Barom
-----	----	-----	------	-----	-----	------	------	-------	-----	-----
00:00	41.1	37.8	41.1	87	37.5	5	13	270	0.00	29.742 
00:05	40.9	38.4	40.9	87	37.3	4	9	270	0.00	29.742 
00:10	40.6	40.6	40.6	87	37.0	3	6	292	0.00	29.742 
00:15	40.5	40.5	40.5	88	37.2	3	6	315	0.00	29.749 
00:20	40.2	40.2	40.2	88	36.9	3	6	315	0.00	29.749 
00:25	40.1	40.1	40.1	88	36.8	3	6	270	0.00	29.749 
00:30	39.9	39.9	39.9	87	36.4	3	7	292	0.00	29.756 
00:35	39.8	39.8	39.8	86	36.0	3	7	315	0.00	29.756 
00:40	39.8	39.8	39.8	86	36.0	2	7	292	0.00	29.756 
00:45	39.6	39.6	39.6	85	35.5	3	6	292	0.00	29.762 
00:50	39.5	39.5	39.5	85	35.4	2	6	315	0.00	29.762 
00:55	39.3	39.3	39.3	85	35.2	3	9	315	0.00	29.762 
01:00	39.3	39.3	39.3	85	35.2	3	9	292	0.00	29.774 
01:05	39.2	39.2	39.2	84	34.8	3	9	292	0.00	29.774 
01:10	39.2	36.4	39.2	84	34.8	4	6	270	0.00	29.774 
01:15	39.1	36.3	39.1	83	34.4	4	9	292	0.00	29.779 
01:20	39.1	39.1	39.1	83	34.4	3	9	270	0.00	29.779 
01:25	39.1	36.3	39.1	82	34.1	4	11	338	0.00	29.779 
01:30	38.9	38.9	38.9	82	33.9	3	7	292	0.00	29.789 
01:35	38.9	38.9	38.9	82	33.9	3	5	270	0.00	29.789 
01:40	38.9	38.9	38.9	82	33.9	1	6	315	0.00	29.789 
01:45	38.9	38.9	38.9	82	33.9	2	5	270	0.00	29.795 
01:50	38.8	38.8	38.8	82	33.8	2	5	292	0.00	29.795 
01:55	38.8	38.8	38.8	82	33.8	2	5	292	0.00	29.795 
02:00	38.8	38.8	38.8	82	33.8	1	4	338	0.00	29.805 
02:05	38.6	38.6	38.6	82	33.6	2	7	292	0.00	29.805 
02:10	38.6	38.6	38.6	82	33.6	1	4	292	0.00	29.805 
02:15	38.6	38.6	38.6	82	33.6	2	4	315	0.00	29.815 
02:20	38.6	38.6	38.6	82	33.6	1	3	315	0.00	29.815 
02:25	38.5	38.5	38.5	82	33.5	1	3	292	0.00	29.815 
02:30	38.5	38.5	38.5	82	33.5	0	2	292	0.00	29.822 
02:35	38.3	38.3	38.3	82	33.3	1	4	292	0.00	29.822 
02:40	38.3	38.3	38.3	82	33.3	1	6	292	0.00	29.822 
02:45	38.3	38.3	38.3	82	33.3	1	5	315	0.00	29.826 
02:50	38.3	38.3	38.3	82	33.3	0	2	315	0.00	29.826 
02:55	38.3	38.3	38.3	82	33.3	1	2	315	0.00	29.826 
03:00	38.3	38.3	38.3	82	33.3	1	4	315	0.00	29.838 
03:05	38.3	38.3	38.3	82	33.3	0	2	315	0.00	29.838 
03:10	38.3	38.3	38.3	82	33.3	1	3	248	0.00	29.838 
03:15	38.2	38.2	38.2	82	33.2	0	3	248	0.00	29.841 
03:20	38.2	38.2	38.2	81	32.9	2	5	292	0.00	29.841 
03:25	38.2	38.2	38.2	81	32.9	0	2	292	0.00	29.841 
03:30	38.2	38.2	38.2	81	32.9	1	3	292	0.00	29.844 
03:35	38.2	38.2	38.2	81	32.9	0	3	292	0.00	29.844 
03:40	38.2	38.2	38.2	81	32.9	0	1	292	0.00	29.844 
03:45	38.2	38.2	38.2	81	32.9	1	4	292	0.00	29.848 
03:50	38.2	38.2	38.2	81	32.9	0	3	292	0.00	29.848 
03:55	38.2	38.2	38.2	81	32.9	0	1	292	0.00	29.848 
04:00	38.0	38.0	38.0	81	32.7	0	2	292	0.00	29.852 
04:05	38.0	38.0	38.0	81	32.7	1	4	338	0.00	29.852 
04:10	37.9	37.9	37.9	81	32.6	0	1	338	0.00	29.852 
04:15	37.8	37.8	37.8	81	32.5	0	1	338	0.00	29.853 
04:20	37.8	37.8	37.8	81	32.5	0	1	338	0.00	29.853 
04:25	37.6	37.6	37.6	81	32.3	0	2	338	0.00	29.853 
04:30	37.5	37.5	37.5	81	32.2	0	1	338	0.00	29.856 
04:35	37.3	37.3	37.3	81	32.0	0	1	338	0.00	29.856 
04:40	37.2	37.2	37.2	82	32.2	0	0	---	0.00	29.856 
04:45	37.0	37.0	37.0	82	32.0	0	1	338	0.00	29.865 
04:50	36.9	36.9	36.9	83	32.2	0	0	---	0.00	29.865 
04:55	37.0	37.0	37.0	83	32.3	0	1	338	0.00	29.865 
05:00	36.9	36.9	36.9	84	32.5	0	0	---	0.00	29.872 
05:05	36.9	36.9	36.9	84	32.5	0	0	---	0.00	29.872 
05:10	36.9	36.9	36.9	84	32.5	0	0	---	0.00	29.872 
05:15	36.8	36.8	36.8	84	32.4	0	1	338	0.00	29.874 
05:20	36.8	36.8	36.8	84	32.4	0	1	338	0.00	29.874 
05:25	36.6	36.6	36.6	84	32.2	0	0	---	0.00	29.874 
05:30	36.6	36.6	36.6	84	32.2	0	1	338	0.00	29.880 
05:35	36.5	36.5	36.5	84	32.1	0	0	---	0.00	29.880 
05:40	36.2	36.2	36.2	84	31.8	0	0	---	0.00	29.880 
05:45	36.0	36.0	36.0	84	31.6	0	0	---	0.00	29.888 
05:50	35.9	35.9	35.9	84	31.5	0	0	---	0.00	29.888 
05:55	35.8	35.8	35.8	84	31.4	0	0	---	0.00	29.888 
06:00	35.5	35.5	35.5	85	31.4	0	0	---	0.00	29.890 
06:05	35.3	35.3	35.3	85	31.2	0	0	---	0.00	29.890 
06:10	35.0	35.0	35.0	85	31.0	0	0	---	0.00	29.890 
06:15	34.9	34.9	34.9	85	30.9	0	0	---	0.00	29.901 
06:20	34.9	34.9	34.9	86	31.1	0	0	---	0.00	29.901 
06:25	34.7	34.7	34.7	86	30.9	0	0	---	0.00	29.901 
06:30	34.7	34.7	34.7	86	30.9	0	0	---	0.00	29.911 
06:35	34.7	34.7	34.7	86	30.9	0	0	---	0.00	29.911 
06:40	34.6	34.6	34.6	87	31.1	0	0	---	0.00	29.911 
06:45	34.7	34.7	34.7	87	31.2	0	0	---	0.00	29.921 
06:50	34.7	34.7	34.7	88	31.5	0	0	---	0.00	29.921 
06:55	34.9	34.9	34.9	88	31.7	0	0	---	0.00	29.921 
07:00	34.9	34.9	34.9	88	31.7	0	0	---	0.00	29.924 
07:05	34.9	34.9	34.9	88	31.7	0	0	---	0.00	29.924 
07:10	34.9	34.9	34.9	88	31.7	0	0	---	0.00	29.924 
07:15	34.9	34.9	34.9	88	31.7	0	0	---	0.00	29.927 
07:20	34.9	34.9	34.9	88	31.7	0	0	---	0.00	29.927 
07:25	34.6	34.6	34.6	88	31.4	0	0	---	0.00	29.927 
07:30	34.4	34.4	34.4	88	31.2	0	0	---	0.00	29.940 
07:35	34.1	34.1	34.1	88	30.9	0	0	---	0.00	29.940 
07:40	34.0	34.0	34.0	88	30.8	0	0	---	0.00	29.940 
07:45	33.7	33.7	33.7	87	30.3	0	0	---	0.00	29.942 
07:50	33.4	33.4	33.4	88	30.2	0	0	---	0.00	29.942 
07:55	33.1	33.1	33.1	88	29.9	0	0	---	0.00	29.942 
08:00	32.8	32.8	32.8	88	29.6	0	0	---	0.00	29.946 
08:05	32.5	32.5	32.5	88	29.3	0	0	---	0.00	29.946 
08:10	32.4	32.4	32.4	88	29.3	0	0	---	0.00	29.946 
08:15	32.1	32.1	32.1	88	29.0	0	0	---	0.00	29.960 
08:20	31.9	31.9	31.9	88	28.8	0	0	---	0.00	29.960 
08:25	31.9	31.9	31.9	88	28.8	0	0	---	0.00	29.960 
08:30	31.8	31.8	31.8	89	28.9	0	0	---	0.00	29.968 
08:35	31.8	31.8	31.8	89	28.9	0	0	---	0.00	29.968 
08:40	32.2	32.2	32.2	90	29.6	0	0	---	0.00	29.968 
08:45	32.7	32.7	32.7	90	30.1	0	0	---	0.00	29.975 
08:50	33.1	33.1	33.1	90	30.5	0	0	---	0.00	29.975 
08:55	33.5	33.5	33.5	90	30.9	0	0	---	0.00	29.975 
09:00	33.8	33.8	33.8	90	31.2	0	0	---	0.00	29.974 
09:05	34.1	34.1	34.1	90	31.5	0	0	---	0.00	29.974 
09:10	34.4	34.4	34.4	90	31.8	0	0	---	0.00	29.974 
09:15	34.6	34.6	34.6	90	32.0	0	0	---	0.00	29.978 
09:20	34.7	34.7	34.7	90	32.1	0	0	---	0.00	29.978 
09:25	35.0	35.0	35.0	90	32.4	0	0	---	0.00	29.978 
09:30	35.2	35.2	35.2	90	32.6	0	0	---	0.00	29.979 
09:35	35.5	35.5	35.5	90	32.9	0	0	---	0.00	29.979 
09:40	35.6	35.6	35.6	90	33.0	0	0	---	0.00	29.979 
09:45	35.9	35.9	35.9	89	33.0	0	1	338	0.00	29.988 
09:50	36.0	36.0	36.0	89	33.1	0	1	338	0.00	29.988 
09:55	36.2	36.2	36.2	88	33.0	0	1	338	0.00	29.988 
10:00	36.2	36.2	36.2	88	33.0	0	1	338	0.00	29.989 
10:05	36.3	36.3	36.3	87	32.8	0	1	338	0.00	29.989 
10:10	36.5	36.5	36.5	87	33.0	0	1	338	0.00	29.989 
10:15	36.6	36.6	36.6	86	32.8	0	1	338	0.00	29.998 
10:20	36.9	36.9	36.9	85	32.8	0	2	338	0.00	29.998 
10:25	36.9	36.9	36.9	85	32.8	0	1	338	0.00	29.998 
10:30	37.2	37.2	37.2	85	33.1	0	1	338	0.00	30.007 
10:35	37.5	37.5	37.5	84	33.1	0	1	338	0.00	30.007 
10:40	37.8	37.8	37.8	84	33.4	0	1	338	0.00	30.007 
10:45	38.2	38.2	38.2	84	33.8	0	1	338	0.00	30.006 
10:50	38.5	38.5	38.5	83	33.8	0	1	338	0.00	30.006 
10:55	38.8	38.8	38.8	82	33.8	0	1	338	0.00	30.006 
11:00	38.9	38.9	38.9	81	33.6	0	1	338	0.00	30.008 
11:05	38.9	38.9	38.9	80	33.3	0	1	338	0.00	30.008 
11:10	38.9	38.9	38.9	80	33.3	0	2	338	0.00	30.008 
11:15	39.1	39.1	39.1	79	33.1	0	2	338	0.00	30.012 
11:20	39.2	39.2	39.2	79	33.2	0	1	338	0.00	30.012 
11:25	39.5	39.5	39.5	79	33.5	0	1	338	0.00	30.012 
11:30	39.6	39.6	39.6	78	33.3	0	2	338	0.00	30.014 
11:35	39.6	39.6	39.6	78	33.3	0	2	338	0.00	30.014 
11:40	40.1	40.1	40.1	77	33.5	0	2	338	0.00	30.014 
11:45	40.2	40.2	40.2	76	33.3	0	2	338	0.00	30.021 
11:50	40.1	40.1	40.1	75	32.8	0	1	338	0.00	30.021 
11:55	40.1	40.1	40.1	73	32.2	0	1	338	0.00	30.021 
12:00	40.3	40.3	40.3	74	32.7	0	2	338	0.00	30.021 
12:05	40.5	40.5	40.5	72	32.2	0	1	338	0.00	30.021 
12:10	40.5	40.5	40.5	70	31.5	0	1	338	0.00	30.021 
12:15	40.6	40.6	40.6	70	31.6	0	1	338	0.00	30.017 
12:20	40.8	40.8	40.8	70	31.8	0	2	338	0.00	30.017 
12:25	40.9	40.9	40.9	70	31.9	0	1	338	0.00	30.017 
12:30	40.9	40.9	40.9	70	31.9	0	2	338	0.00	30.020 
12:35	41.1	41.1	41.1	70	32.1	0	2	338	0.00	30.020 
12:40	41.1	41.1	41.1	70	32.1	0	1	338	0.00	30.020 
12:45	41.2	41.2	41.2	70	32.2	0	2	338	0.00	30.021 
12:50	41.5	41.5	41.5	70	32.5	0	1	338	0.00	30.021 
12:55	41.6	41.6	41.6	69	32.2	0	3	338	0.00	30.021 
13:00	41.9	41.9	41.9	69	32.5	0	1	338	0.00	30.015 
13:05	42.1	42.1	42.1	67	31.9	0	1	338	0.00	30.015 
13:10	41.9	41.9	41.9	68	32.1	0	1	338	0.00	30.015 
13:15	42.2	42.2	42.2	66	31.7	0	1	338	0.00	30.014 
13:20	42.2	42.2	42.2	66	31.7	0	1	338	0.00	30.014 
13:25	42.2	42.2	42.2	67	32.0	1	2	338	0.00	30.014 
13:30	42.3	42.3	42.3	69	32.9	0	1	338	0.00	30.012 
13:35	42.6	42.6	42.6	67	32.4	0	3	0	0.00	30.012 
13:40	42.8	42.8	42.8	67	32.6	0	2	0	0.00	30.012 
13:45	42.8	42.8	42.8	66	32.2	0	2	0	0.00	30.009 
13:50	42.5	42.5	42.5	66	32.0	0	1	0	0.00	30.009 
13:55	42.6	42.6	42.6	67	32.4	0	2	0	0.00	30.009 
14:00	42.6	42.6	42.6	66	32.0	0	2	0	0.00	30.006 
14:05	42.8	42.8	42.8	66	32.2	0	1	0	0.00	30.006 
14:10	42.6	42.6	42.6	65	31.7	0	2	0	0.00	30.006 
14:15	42.6	42.6	42.6	66	32.0	0	1	0	0.00	30.008 
14:20	42.8	42.8	42.8	67	32.6	0	1	0	0.00	30.008 
14:25	42.9	42.9	42.9	66	32.3	0	1	0	0.00	30.008 
14:30	43.2	43.2	43.2	66	32.6	0	1	0	0.00	30.008 
14:35	43.2	43.2	43.2	66	32.6	0	1	0	0.00	30.008 
14:40	43.3	43.3	43.3	66	32.7	0	1	0	0.00	30.008 
14:45	43.3	43.3	43.3	65	32.3	0	2	0	0.00	30.013 
14:50	43.5	43.5	43.5	65	32.5	0	3	0	0.00	30.013 
14:55	43.6	43.6	43.6	64	32.2	0	2	292	0.00	30.013 
15:00	43.9	43.9	43.9	63	32.1	0	5	292	0.00	30.013 
15:05	44.1	44.1	44.1	64	32.7	0	2	292	0.00	30.013 
15:10	44.2	44.2	44.2	64	32.8	0	1	292	0.00	30.013 
15:15	44.2	44.2	44.2	63	32.4	1	3	292	0.00	30.010 
15:20	43.8	43.8	43.8	63	32.0	1	3	292	0.00	30.010 
15:25	43.2	43.2	43.2	63	31.5	1	3	292	0.00	30.010 
15:30	43.2	43.2	43.2	65	32.2	0	1	292	0.00	30.009 
15:35	43.3	43.3	43.3	64	32.0	0	3	292	0.00	30.009 
15:40	43.6	43.6	43.6	65	32.6	0	2	292	0.00	30.009 
15:45	43.9	43.9	43.9	65	32.9	0	2	292	0.00	30.007 
15:50	43.9	43.9	43.9	64	32.5	0	1	292	0.00	30.007 
15:55	44.1	44.1	44.1	64	32.7	0	1	292	0.00	30.007 
16:00	44.1	44.1	44.1	63	32.3	0	1	292	0.00	30.012 
16:05	44.1	44.1	44.1	64	32.7	0	1	292	0.00	30.012 
16:10	43.9	43.9	43.9	64	32.5	0	4	292	0.00	30.012 
16:15	43.9	43.9	43.9	63	32.1	0	1	292	0.00	30.018 
16:20	43.6	43.6	43.6	63	31.8	0	1	292	0.00	30.018 
16:25	43.5	43.5	43.5	64	32.1	0	2	292	0.00	30.018 
16:30	43.5	43.5	43.5	62	31.4	0	2	292	0.00	30.024 
16:35	43.6	43.6	43.6	62	31.5	0	1	292	0.00	30.024 
16:40	43.5	43.5	43.5	62	31.4	0	2	292	0.00	30.024 
16:45	43.5	43.5	43.5	62	31.4	0	2	292	0.00	30.031 
16:50	43.3	43.3	43.3	62	31.2	0	1	292	0.00	30.031 
16:55	43.2	43.2	43.2	62	31.1	0	2	292	0.00	30.031 
17:00	43.2	43.2	43.2	62	31.1	0	1	292	0.00	30.032 
17:05	43.1	43.1	43.1	63	31.4	0	1	292	0.00	30.032 
17:10	42.9	42.9	42.9	63	31.2	0	1	292	0.00	30.032 
17:15	42.8	42.8	42.8	64	31.5	0	1	292	0.00	30.036 
17:20	42.8	42.8	42.8	64	31.5	0	1	292	0.00	30.036 
17:25	42.6	42.6	42.6	64	31.3	0	1	292	0.00	30.036 
17:30	42.5	42.5	42.5	64	31.2	0	1	292	0.00	30.041 
17:35	42.3	42.3	42.3	64	31.0	0	0	---	0.00	30.041 
17:40	42.1	42.1	42.1	64	30.8	0	0	---	0.00	30.041 
17:45	41.8	41.8	41.8	65	30.9	0	0	---	0.00	30.040 
17:50	41.3	41.3	41.3	65	30.4	0	0	---	0.00	30.040 
17:55	40.9	40.9	40.9	65	30.1	0	0	---	0.00	30.040 
18:00	40.5	40.5	40.5	66	30.0	0	0	---	0.00	30.043 
18:05	40.1	40.1	40.1	68	30.4	0	0	---	0.00	30.043 
18:10	39.5	39.5	39.5	68	29.8	0	0	---	0.00	30.043 
18:15	39.1	39.1	39.1	69	29.8	0	0	---	0.00	30.046 
18:20	38.6	38.6	38.6	71	30.0	0	0	---	0.00	30.046 
18:25	38.2	38.2	38.2	72	30.0	0	0	---	0.00	30.046 
18:30	37.8	37.8	37.8	73	29.9	0	0	---	0.00	30.050 
18:35	37.3	37.3	37.3	73	29.5	0	0	---	0.00	30.050 
18:40	36.9	36.9	36.9	74	29.4	0	0	---	0.00	30.050 
18:45	36.5	36.5	36.5	74	29.0	0	0	---	0.00	30.057 
18:50	36.0	36.0	36.0	75	28.9	0	0	---	0.00	30.057 
18:55	35.6	35.6	35.6	76	28.8	0	0	---	0.00	30.057 
19:00	35.3	35.3	35.3	77	28.8	0	0	---	0.00	30.064 
19:05	35.0	35.0	35.0	78	28.8	0	0	---	0.00	30.064 
19:10	34.7	34.7	34.7	79	28.9	0	0	---	0.00	30.064 
19:15	34.4	34.4	34.4	79	28.6	0	0	---	0.00	30.074 
19:20	34.1	34.1	34.1	80	28.6	0	0	---	0.00	30.074 
19:25	33.8	33.8	33.8	80	28.3	0	0	---	0.00	30.074 
19:30	33.5	33.5	33.5	81	28.3	0	0	---	0.00	30.084 
19:35	33.2	33.2	33.2	81	28.0	0	0	---	0.00	30.084 
19:40	32.9	32.9	32.9	82	28.0	0	0	---	0.00	30.084 
19:45	32.7	32.7	32.7	82	27.8	0	0	---	0.00	30.085 
19:50	32.4	32.4	32.4	82	27.5	0	0	---	0.00	30.085 
19:55	32.1	32.1	32.1	83	27.5	0	0	---	0.00	30.085 
20:00	31.8	31.8	31.8	83	27.2	0	0	---	0.00	30.095 
20:05	31.5	31.5	31.5	83	26.9	0	0	---	0.00	30.095 
20:10	31.2	31.2	31.2	83	26.6	0	0	---	0.00	30.095 
20:15	31.0	31.0	31.0	84	26.7	0	0	---	0.00	30.102 
20:20	30.7	30.7	30.7	84	26.4	0	0	---	0.00	30.102 
20:25	30.6	30.6	30.6	85	26.6	0	0	---	0.00	30.102 
20:30	30.4	30.4	30.4	85	26.4	0	0	---	0.00	30.102 
20:35	30.1	30.1	30.1	85	26.1	0	0	---	0.00	30.102 
20:40	30.0	30.0	30.0	85	26.0	0	0	---	0.00	30.102 
20:45	29.8	29.8	29.8	86	26.1	0	0	---	0.00	30.107 
20:50	29.7	29.7	29.7	86	26.0	0	0	---	0.00	30.107 
20:55	29.5	29.5	29.5	86	25.8	0	0	---	0.00	30.107 
21:00	29.4	29.4	29.4	86	25.7	0	0	---	0.00	30.112 
21:05	29.3	29.3	29.3	87	25.9	0	0	---	0.00	30.112 
21:10	29.1	29.1	29.1	87	25.7	0	0	---	0.00	30.112 
21:15	29.1	29.1	29.1	87	25.7	0	0	---	0.00	30.112 
21:20	28.8	28.8	28.8	87	25.4	0	0	---	0.00	30.112 
21:25	28.7	28.7	28.7	88	25.6	0	0	---	0.00	30.112 
21:30	28.5	28.5	28.5	88	25.4	0	0	---	0.00	30.115 
21:35	28.2	28.2	28.2	88	25.1	0	0	---	0.00	30.115 
21:40	28.2	28.2	28.2	88	25.1	0	0	---	0.00	30.115 
21:45	28.1	28.1	28.1	88	25.0	0	0	---	0.00	30.117 
21:50	28.1	28.1	28.1	88	25.0	0	0	---	0.00	30.117 
21:55	28.1	28.1	28.1	88	25.0	0	0	---	0.00	30.117 
22:00	28.1	28.1	28.1	89	25.3	0	0	---	0.00	30.120 
22:05	27.9	27.9	27.9	89	25.1	0	0	---	0.00	30.120 
22:10	27.8	27.8	27.8	89	25.0	0	0	---	0.00	30.120 
22:15	27.6	27.6	27.6	89	24.8	0	0	---	0.00	30.121 
22:20	27.5	27.5	27.5	89	24.7	0	0	---	0.00	30.121 
22:25	27.3	27.3	27.3	89	24.5	0	0	---	0.00	30.121 
22:30	27.2	27.2	27.2	89	24.4	0	0	---	0.00	30.125 
22:35	27.0	27.0	27.0	89	24.2	0	0	---	0.00	30.125 
22:40	26.9	26.9	26.9	89	24.1	0	0	---	0.00	30.125 
22:45	26.7	26.7	26.7	89	23.9	0	0	---	0.00	30.118 
22:50	26.7	26.7	26.7	89	23.9	0	0	---	0.00	30.118 
22:55	26.6	26.6	26.6	89	23.8	0	0	---	0.00	30.118 
23:00	26.6	26.6	26.6	89	23.8	0	0	---	0.00	30.117 
23:05	26.6	26.6	26.6	90	24.1	0	0	---	0.00	30.117 
23:10	26.6	26.6	26.6	90	24.1	0	0	---	0.00	30.117 
23:15	26.4	26.4	26.4	90	23.9	0	0	---	0.00	30.119 
23:20	26.4	26.4	26.4	90	23.9	0	0	---	0.00	30.119 
23:25	26.3	26.3	26.3	90	23.8	0	0	---	0.00	30.119 
23:30	26.1	26.1	26.1	90	23.6	0	0	---	0.00	30.127 
23:35	26.1	26.1	26.1	90	23.6	0	0	---	0.00	30.127 
23:40	26.0	26.0	26.0	90	23.5	0	0	---	0.00	30.127 
23:45	25.8	25.8	25.8	90	23.3	0	0	---	0.00	30.130 
23:50	25.8	25.8	25.8	90	23.3	0	0	---	0.00	30.130 
23:55	25.7	25.7	25.7	90	23.2	0	0	---	0.00	30.130 

CoCoRaHS
IN-AL-39
A2 Web Hosting
Creative Commons License
GoDaddy
search engine by freefind advanced

loaded 2018-11-15 13:42:54 • last modified 2010-11-18 10:43:29
Privacy PolicyDisclaimer
• wx.awcolley.com is powered by PmWiki v.2002016 •
• all content (unless otherwise noted) © 2018 A W Colley